createdAt,value
2022-12-27T00:02:38.892Z,8.05
2022-12-27T00:05:45.110Z,8.01
2022-12-27T00:08:49.897Z,8.08
2022-12-27T00:11:57.993Z,8.19
2022-12-27T00:15:06.301Z,7.88
2022-12-27T00:18:10.056Z,7.58
2022-12-27T00:21:15.391Z,7.68
2022-12-27T00:24:19.265Z,7.66
2022-12-27T00:27:22.929Z,7.89
2022-12-27T00:30:28.023Z,7.67
2022-12-27T00:33:33.594Z,7.37
2022-12-27T00:36:37.313Z,7.70
2022-12-27T00:39:41.073Z,7.77
2022-12-27T00:42:45.220Z,7.63
2022-12-27T00:45:50.500Z,7.94
2022-12-27T00:48:54.129Z,7.94
2022-12-27T00:51:58.153Z,7.98
2022-12-27T00:55:01.758Z,7.96
2022-12-27T00:58:05.698Z,8.08
2022-12-27T01:01:14.020Z,8.01
2022-12-27T01:04:17.887Z,8.05
2022-12-27T01:07:23.096Z,7.80
2022-12-27T01:10:26.619Z,7.88
2022-12-27T01:13:30.355Z,7.81
2022-12-27T01:16:35.716Z,7.52
2022-12-27T01:19:40.513Z,7.80
2022-12-27T01:22:44.152Z,7.62
2022-12-27T01:25:47.840Z,7.95
2022-12-27T01:28:52.364Z,8.02
2022-12-27T01:31:57.466Z,8.19
2022-12-27T01:35:02.581Z,7.89
2022-12-27T01:38:06.144Z,7.82
2022-12-27T01:41:28.143Z,7.77
2022-12-27T01:44:56.500Z,7.88
2022-12-27T01:48:06.070Z,7.61
2022-12-27T01:51:11.439Z,7.57
2022-12-27T01:54:15.224Z,7.74
2022-12-27T01:57:18.762Z,7.73
2022-12-27T02:00:22.575Z,7.75
2022-12-27T02:03:34.570Z,7.85
2022-12-27T02:06:41.063Z,7.98
2022-12-27T02:09:49.562Z,7.77
2022-12-27T02:12:53.282Z,8.02
2022-12-27T02:15:56.918Z,7.62
2022-12-27T02:19:02.018Z,7.44
2022-12-27T02:22:55.609Z,7.72
2022-12-27T02:26:35.352Z,7.89
2022-12-27T02:30:05.423Z,7.90
2022-12-27T02:33:15.218Z,8.05
2022-12-27T02:36:25.052Z,8.02
2022-12-27T02:39:30.743Z,8.05
2022-12-27T02:43:00.233Z,7.83
2022-12-27T02:46:30.519Z,6.87
2022-12-27T02:49:53.099Z,7.38
2022-12-27T02:53:09.192Z,7.56
2022-12-27T02:56:45.915Z,7.80
2022-12-27T03:00:21.118Z,7.80
2022-12-27T03:03:44.035Z,7.60
2022-12-27T03:07:01.501Z,7.67
2022-12-27T03:10:35.857Z,7.35
2022-12-27T03:14:04.172Z,7.16
2022-12-27T03:17:14.356Z,7.35
2022-12-27T03:20:38.119Z,6.89
2022-12-27T03:24:02.206Z,7.05
2022-12-27T03:27:18.403Z,7.40
2022-12-27T03:30:51.019Z,7.35
2022-12-27T03:34:04.688Z,7.43
2022-12-27T03:37:32.262Z,7.50
2022-12-27T03:41:01.813Z,7.20
2022-12-27T03:44:24.345Z,7.01
2022-12-27T03:47:38.039Z,7.30
2022-12-27T03:50:46.482Z,7.32
2022-12-27T03:53:55.853Z,7.01
2022-12-27T03:57:02.531Z,6.85
2022-12-27T04:00:07.334Z,6.21
2022-12-27T04:03:16.697Z,6.86
2022-12-27T04:06:20.642Z,7.03
2022-12-27T04:09:43.385Z,7.10
2022-12-27T04:13:04.206Z,7.22
2022-12-27T04:16:26.541Z,7.00
2022-12-27T04:19:47.644Z,7.27
2022-12-27T04:23:08.792Z,7.17
2022-12-27T04:26:31.192Z,7.28
2022-12-27T04:29:52.384Z,7.37
2022-12-27T04:33:13.479Z,7.24
2022-12-27T04:36:16.945Z,7.45
2022-12-27T04:39:20.563Z,7.24
2022-12-27T04:42:43.118Z,7.25
2022-12-27T04:46:04.162Z,7.00
2022-12-27T04:49:28.345Z,7.04
2022-12-27T04:52:49.148Z,7.08
2022-12-27T04:55:54.474Z,7.01
2022-12-27T04:59:17.374Z,6.70
2022-12-27T05:02:21.660Z,6.46
2022-12-27T05:05:26.381Z,5.58
2022-12-27T05:08:48.887Z,6.19
2022-12-27T05:12:15.353Z,6.57
2022-12-27T05:15:20.460Z,6.74
2022-12-27T05:18:24.660Z,6.70
2022-12-27T05:21:28.541Z,6.92
2022-12-27T05:24:49.603Z,7.04
2022-12-27T05:27:53.148Z,6.55
2022-12-27T05:31:03.208Z,6.84
2022-12-27T05:34:07.636Z,6.88
2022-12-27T05:37:11.319Z,6.96
2022-12-27T05:40:15.173Z,6.99
2022-12-27T05:43:18.932Z,7.06
2022-12-27T05:46:24.341Z,6.94
2022-12-27T05:49:28.121Z,6.86
2022-12-27T05:52:36.188Z,6.66
2022-12-27T05:55:43.141Z,6.86
2022-12-27T05:58:47.096Z,6.61
2022-12-27T06:01:53.258Z,6.41
2022-12-27T06:04:57.014Z,6.63
2022-12-27T06:08:01.383Z,6.52
2022-12-27T06:11:07.058Z,6.65
2022-12-27T06:14:12.082Z,6.79
2022-12-27T06:17:17.282Z,6.65
2022-12-27T06:20:21.809Z,6.70
2022-12-27T06:23:25.500Z,6.68
2022-12-27T06:26:31.355Z,7.05
2022-12-27T06:29:35.659Z,7.61
2022-12-27T06:32:41.033Z,7.69
2022-12-27T06:35:44.834Z,8.23
2022-12-27T06:38:48.971Z,8.68
2022-12-27T06:41:55.529Z,8.74
2022-12-27T06:44:59.279Z,8.72
2022-12-27T06:48:04.581Z,8.39
2022-12-27T06:51:10.911Z,8.37
2022-12-27T06:54:14.719Z,8.34
2022-12-27T06:57:18.553Z,8.08
2022-12-27T07:00:22.435Z,8.00
2022-12-27T07:03:27.698Z,7.87
2022-12-27T07:06:33.339Z,8.05
2022-12-27T07:09:37.092Z,7.91
2022-12-27T07:12:40.963Z,7.94
2022-12-27T07:15:45.590Z,7.77
2022-12-27T07:18:51.233Z,7.95
2022-12-27T07:21:55.048Z,8.48
2022-12-27T07:24:58.781Z,8.35
2022-12-27T07:28:02.513Z,9.01
2022-12-27T07:31:09.455Z,9.42
2022-12-27T07:34:14.849Z,9.73
2022-12-27T07:37:18.755Z,10.21
2022-12-27T07:40:22.546Z,10.21
2022-12-27T07:43:26.223Z,10.80
2022-12-27T07:46:30.739Z,10.92
2022-12-27T07:49:35.939Z,11.17
2022-12-27T07:52:39.759Z,10.97
2022-12-27T07:55:43.591Z,11.52
2022-12-27T07:58:49.053Z,11.79
2022-12-27T08:02:08.102Z,12.01
2022-12-27T08:05:13.463Z,12.41
2022-12-27T08:08:20.089Z,12.38
2022-12-27T08:11:23.785Z,12.58
2022-12-27T08:14:27.668Z,12.91
2022-12-27T08:17:31.988Z,13.06
2022-12-27T08:20:37.490Z,13.27
2022-12-27T08:23:41.399Z,13.36
2022-12-27T08:26:45.109Z,13.39
2022-12-27T08:29:48.920Z,13.67
2022-12-27T08:32:52.689Z,13.66
2022-12-27T08:35:58.929Z,13.53
2022-12-27T08:39:02.621Z,13.74
2022-12-27T08:42:06.808Z,13.97
2022-12-27T08:45:11.673Z,14.56
2022-12-27T08:48:16.446Z,14.61
2022-12-27T08:51:31.637Z,14.68
2022-12-27T08:54:36.765Z,14.80
2022-12-27T08:57:40.544Z,14.75
2022-12-27T09:00:44.282Z,14.96
2022-12-27T09:03:48.176Z,15.16
2022-12-27T09:06:53.564Z,15.41
2022-12-27T09:09:57.399Z,15.74
2022-12-27T09:13:01.087Z,15.73
2022-12-27T09:16:08.314Z,15.71
2022-12-27T09:19:12.381Z,15.99
2022-12-27T09:22:17.675Z,16.14
2022-12-27T09:25:21.426Z,16.14
2022-12-27T09:28:25.170Z,16.31
2022-12-27T09:31:29.596Z,16.41
2022-12-27T09:34:33.382Z,16.48
2022-12-27T09:37:38.620Z,16.61
2022-12-27T09:40:52.326Z,16.59
2022-12-27T09:44:01.734Z,16.85
2022-12-27T09:47:12.394Z,17.06
2022-12-27T09:50:21.544Z,16.93
2022-12-27T09:53:39.472Z,17.21
2022-12-27T09:57:17.846Z,17.30
2022-12-27T10:00:16.183Z,17.47
2022-12-27T10:03:23.522Z,17.52
2022-12-27T10:06:49.109Z,17.75
2022-12-27T10:10:02.532Z,18.00
2022-12-27T10:13:15.250Z,18.00
2022-12-27T10:16:30.447Z,17.56
2022-12-27T10:19:46.284Z,17.67
2022-12-27T10:22:54.649Z,18.09
2022-12-27T10:26:01.758Z,18.34
2022-12-27T10:29:18.910Z,18.37
2022-12-27T10:32:23.151Z,18.47
2022-12-27T10:35:29.212Z,18.43
2022-12-27T10:38:35.588Z,18.55
2022-12-27T10:41:53.245Z,18.76
2022-12-27T10:45:26.884Z,18.71
2022-12-27T10:48:41.506Z,18.31
2022-12-27T10:51:57.398Z,18.67
2022-12-27T10:55:01.121Z,18.53
2022-12-27T10:58:37.243Z,18.30
2022-12-27T11:01:41.508Z,18.13
2022-12-27T11:04:59.841Z,18.62
2022-12-27T11:08:21.683Z,18.59
2022-12-27T11:11:28.404Z,19.13
2022-12-27T11:14:33.556Z,19.12
2022-12-27T11:17:39.786Z,19.48
2022-12-27T11:20:49.304Z,19.55
2022-12-27T11:23:55.549Z,19.04
2022-12-27T11:27:00.713Z,18.89
2022-12-27T11:30:07.798Z,18.75
2022-12-27T11:33:24.999Z,18.78
2022-12-27T11:36:32.677Z,19.04
2022-12-27T11:39:41.795Z,19.18
2022-12-27T11:42:49.144Z,19.30
2022-12-27T11:45:56.165Z,19.55
2022-12-27T11:49:00.653Z,19.53
2022-12-27T11:52:47.207Z,19.51
2022-12-27T11:56:19.258Z,19.73
2022-12-27T11:59:47.506Z,19.87
2022-12-27T12:03:13.482Z,19.98
2022-12-27T12:06:28.802Z,20.01
2022-12-27T12:10:00.594Z,20.19
2022-12-27T12:13:39.363Z,19.98
2022-12-27T12:17:10.160Z,20.06
2022-12-27T12:20:50.938Z,20.12
2022-12-27T12:24:38.042Z,20.21
2022-12-27T12:27:55.238Z,20.11
2022-12-27T12:31:13.041Z,20.24
2022-12-27T12:34:40.013Z,20.14
2022-12-27T12:38:03.730Z,20.08
2022-12-27T12:41:36.792Z,19.76
2022-12-27T12:45:17.616Z,19.74
2022-12-27T12:48:41.512Z,19.72
2022-12-27T12:52:05.152Z,19.92
2022-12-27T12:55:45.190Z,19.94
2022-12-27T12:58:58.706Z,19.97
2022-12-27T13:02:18.086Z,19.82
2022-12-27T13:05:32.860Z,19.89
2022-12-27T13:08:44.385Z,19.84
2022-12-27T13:12:00.475Z,19.85
2022-12-27T13:15:30.491Z,19.71
2022-12-27T13:18:45.012Z,19.68
2022-12-27T13:22:01.035Z,19.63
2022-12-27T13:25:20.769Z,19.96
2022-12-27T13:28:40.602Z,20.03
2022-12-27T13:31:54.540Z,19.98
2022-12-27T13:35:20.194Z,20.04
2022-12-27T13:38:38.675Z,19.92
2022-12-27T13:42:07.072Z,19.71
2022-12-27T13:45:28.005Z,19.45
2022-12-27T13:49:00.555Z,19.30
2022-12-27T13:52:18.430Z,19.06
2022-12-27T13:55:48.242Z,18.72
2022-12-27T13:59:07.275Z,18.50
2022-12-27T14:02:39.407Z,18.28
2022-12-27T14:06:07.940Z,18.19
2022-12-27T14:09:48.801Z,18.05
2022-12-27T14:13:01.266Z,17.98
2022-12-27T14:16:23.233Z,17.91
2022-12-27T14:19:59.173Z,17.89
2022-12-27T14:23:28.594Z,17.67
2022-12-27T14:27:23.971Z,17.58
2022-12-27T14:31:13.042Z,17.58
2022-12-27T14:34:59.873Z,17.43
2022-12-27T14:38:41.962Z,17.41
2022-12-27T14:42:34.144Z,17.34
2022-12-27T14:46:06.767Z,17.13
2022-12-27T14:49:52.423Z,16.98
2022-12-27T14:53:25.877Z,16.89
2022-12-27T14:56:35.352Z,16.82
2022-12-27T14:59:50.819Z,16.68
2022-12-27T15:03:19.939Z,16.64
2022-12-27T15:06:36.011Z,16.51
2022-12-27T15:09:50.291Z,16.54
2022-12-27T15:13:05.790Z,16.46
2022-12-27T15:16:17.169Z,16.38
2022-12-27T15:19:43.524Z,16.17
2022-12-27T15:22:59.199Z,16.13
2022-12-27T15:26:23.155Z,16.05
2022-12-27T15:29:39.429Z,15.91
2022-12-27T15:32:53.649Z,15.98
2022-12-27T15:36:04.032Z,15.94
2022-12-27T15:39:28.543Z,16.10
2022-12-27T15:42:55.674Z,16.04
2022-12-27T15:46:12.746Z,15.95
2022-12-27T15:49:33.084Z,15.91
2022-12-27T15:52:53.333Z,15.89
2022-12-27T15:56:29.465Z,15.83
2022-12-27T15:59:39.155Z,15.84
2022-12-27T16:02:55.160Z,15.75
2022-12-27T16:05:59.760Z,15.82
2022-12-27T16:09:37.048Z,15.75
2022-12-27T16:12:41.783Z,15.85
2022-12-27T16:15:53.088Z,15.73
2022-12-27T16:19:11.681Z,15.70
2022-12-27T16:22:26.704Z,15.76
2022-12-27T16:25:34.438Z,15.68
2022-12-27T16:28:39.659Z,15.63
2022-12-27T16:31:46.989Z,15.57
2022-12-27T16:34:55.766Z,15.57
2022-12-27T16:38:03.733Z,15.50
2022-12-27T16:41:18.205Z,15.37
2022-12-27T16:44:38.247Z,15.35
2022-12-27T16:48:18.164Z,15.28
2022-12-27T16:51:37.214Z,15.20
2022-12-27T16:54:54.948Z,15.20
2022-12-27T16:58:33.417Z,15.20
2022-12-27T17:01:58.864Z,15.22
2022-12-27T17:05:02.851Z,15.03
2022-12-27T17:08:26.123Z,14.93
2022-12-27T17:11:31.233Z,14.93
2022-12-27T17:14:38.759Z,14.97
2022-12-27T17:17:48.160Z,14.85
2022-12-27T17:21:01.768Z,14.86
2022-12-27T17:24:11.757Z,14.95
2022-12-27T17:27:28.579Z,14.84
2022-12-27T17:30:46.382Z,14.68
2022-12-27T17:34:01.688Z,14.77
2022-12-27T17:37:15.732Z,14.74
2022-12-27T17:40:32.438Z,14.73
2022-12-27T17:44:06.100Z,14.75
2022-12-27T17:47:24.442Z,14.84
2022-12-27T17:50:28.792Z,14.81
2022-12-27T17:53:50.063Z,14.77
2022-12-27T17:57:21.483Z,14.84
2022-12-27T18:00:27.661Z,14.92
2022-12-27T18:03:37.341Z,14.84
2022-12-27T18:06:41.243Z,14.83
2022-12-27T18:09:48.765Z,14.71
2022-12-27T18:12:56.699Z,14.60
2022-12-27T18:16:00.818Z,14.80
2022-12-27T18:19:05.212Z,14.75
2022-12-27T18:22:20.456Z,14.77
2022-12-27T18:25:25.867Z,14.77
2022-12-27T18:28:34.119Z,14.58
2022-12-27T18:31:47.511Z,14.69
2022-12-27T18:34:55.870Z,14.61
2022-12-27T18:37:59.692Z,14.70
2022-12-27T18:41:07.421Z,14.56
2022-12-27T18:44:22.993Z,14.45
2022-12-27T18:47:30.668Z,14.40
2022-12-27T18:50:36.040Z,14.42
2022-12-27T18:53:41.215Z,14.33
2022-12-27T18:56:44.920Z,14.26
2022-12-27T19:00:02.852Z,14.08
2022-12-27T19:03:17.014Z,14.21
2022-12-27T19:06:20.895Z,14.09
2022-12-27T19:09:28.178Z,14.20
2022-12-27T19:12:35.511Z,14.26
2022-12-27T19:15:44.108Z,14.30
2022-12-27T19:18:53.034Z,14.25
2022-12-27T19:21:57.705Z,14.06
2022-12-27T19:25:01.956Z,14.17
2022-12-27T19:28:21.414Z,14.00
2022-12-27T19:31:26.777Z,14.02
2022-12-27T19:34:34.238Z,14.10
2022-12-27T19:37:38.098Z,13.84
2022-12-27T19:40:42.058Z,13.87
2022-12-27T19:43:47.639Z,13.82
2022-12-27T19:46:52.890Z,13.73
2022-12-27T19:49:56.605Z,13.63
2022-12-27T19:53:00.590Z,13.74
2022-12-27T19:56:04.359Z,13.68
2022-12-27T19:59:08.370Z,13.67
2022-12-27T20:02:13.716Z,13.65
2022-12-27T20:05:17.958Z,13.69
2022-12-27T20:08:44.939Z,13.54
2022-12-27T20:11:50.757Z,13.67
2022-12-27T20:14:54.503Z,13.81
2022-12-27T20:17:59.832Z,13.67
2022-12-27T20:21:03.499Z,13.87
2022-12-27T20:24:08.088Z,13.96
2022-12-27T20:27:11.912Z,13.61
2022-12-27T20:30:15.931Z,13.77
2022-12-27T20:33:21.053Z,13.57
2022-12-27T20:36:25.722Z,13.24
2022-12-27T20:39:29.414Z,13.33
2022-12-27T20:42:33.252Z,13.28
2022-12-27T20:45:37.086Z,13.24
2022-12-27T20:48:44.092Z,13.12
2022-12-27T20:51:47.832Z,13.19
2022-12-27T20:54:52.654Z,13.32
2022-12-27T20:57:56.559Z,13.38
2022-12-27T21:01:06.654Z,13.42
2022-12-27T21:04:12.311Z,13.31
2022-12-27T21:07:16.119Z,13.23
2022-12-27T21:10:20.048Z,13.20
2022-12-27T21:13:23.772Z,13.17
2022-12-27T21:16:29.829Z,13.17
2022-12-27T21:19:35.053Z,13.23
2022-12-27T21:22:38.893Z,13.20
2022-12-27T21:25:42.743Z,13.21
2022-12-27T21:28:47.384Z,13.25
2022-12-27T21:31:51.982Z,13.17
2022-12-27T21:34:57.250Z,12.93
2022-12-27T21:38:01.081Z,13.05
2022-12-27T21:41:07.014Z,13.20
2022-12-27T21:44:11.043Z,13.18
2022-12-27T21:47:14.791Z,13.34
2022-12-27T21:50:20.169Z,13.37
2022-12-27T21:53:24.635Z,13.15
2022-12-27T21:56:29.055Z,13.09
2022-12-27T21:59:32.929Z,12.94
2022-12-27T22:02:36.765Z,13.19
2022-12-27T22:05:42.088Z,12.83
2022-12-27T22:08:47.745Z,12.53
2022-12-27T22:11:51.499Z,12.59
2022-12-27T22:14:55.192Z,12.89
2022-12-27T22:17:58.997Z,12.90
2022-12-27T22:21:07.711Z,12.79
2022-12-27T22:24:17.362Z,12.85
2022-12-27T22:27:21.423Z,12.93
2022-12-27T22:30:25.513Z,12.76
2022-12-27T22:33:29.317Z,12.95
2022-12-27T22:36:35.273Z,12.89
2022-12-27T22:39:39.008Z,12.87
2022-12-27T22:42:42.911Z,12.71
2022-12-27T22:45:53.470Z,12.68
2022-12-27T22:48:59.839Z,12.67
2022-12-27T22:52:05.233Z,12.78
2022-12-27T22:55:09.354Z,12.82
2022-12-27T22:58:13.033Z,12.80
2022-12-27T23:01:19.104Z,12.72
2022-12-27T23:04:23.035Z,12.63
2022-12-27T23:08:05.653Z,12.64
2022-12-27T23:10:52.152Z,12.62
2022-12-27T23:13:57.348Z,12.74
2022-12-27T23:17:01.137Z,12.82
2022-12-27T23:20:05.671Z,12.86
2022-12-27T23:23:10.820Z,12.94
2022-12-27T23:26:15.931Z,12.73
2022-12-27T23:29:19.737Z,12.38
2022-12-27T23:32:23.511Z,12.20
2022-12-27T23:35:27.438Z,12.26
2022-12-27T23:38:32.683Z,12.10
2022-12-27T23:41:37.414Z,12.19
2022-12-27T23:44:41.090Z,12.43
2022-12-27T23:47:44.914Z,12.35
2022-12-27T23:50:49.305Z,12.53
2022-12-27T23:53:54.771Z,12.25
2022-12-27T23:56:58.789Z,12.40
